Terminal Aerodrome Forecast
Issued by NWS

Home | Current Version | Previous Version | Text Only | Print | Product List | Glossary Off
Versions: 1 2 3 4 5 6 7 8 9 10 11 12 13 14 15 16 17 18 19 20 21 22

000
FTUS43 KBIS 242000 AAA
TAFDIK
TAF AMD
KDIK 242014Z 2420/2518 25020G28KT P6SM VCSH SCT025 BKN050
     FM250300 27016G24KT P6SM VCSH OVC025
     FM251000 29018KT P6SM OVC010
     FM251600 29018KT P6SM BKN025=

USA.gov is the U.S. government's official web portal to all federal, state and local government web resources and services.